createdAt,value
2019-02-21T00:01:23.701Z,4.20
2019-02-21T00:03:52.145Z,4.20
2019-02-21T00:06:20.593Z,4.10
2019-02-21T00:08:49.032Z,4.10
2019-02-21T00:11:17.634Z,4.10
2019-02-21T00:13:46.134Z,4.10
2019-02-21T00:16:14.645Z,4.00
2019-02-21T00:18:43.073Z,4.00
2019-02-21T00:21:11.666Z,3.90
2019-02-21T00:23:40.087Z,3.80
2019-02-21T00:26:08.973Z,3.70
2019-02-21T00:28:37.404Z,3.70
2019-02-21T00:31:05.929Z,3.70
2019-02-21T00:33:34.362Z,3.70
2019-02-21T00:36:02.825Z,3.70
2019-02-21T00:38:31.286Z,3.70
2019-02-21T00:41:00.050Z,3.70
2019-02-21T00:43:28.494Z,3.70
2019-02-21T00:45:56.957Z,3.70
2019-02-21T00:48:25.393Z,3.70
2019-02-21T00:50:54.183Z,3.60
2019-02-21T00:53:22.613Z,3.50
2019-02-21T00:55:51.305Z,3.40
2019-02-21T00:58:20.035Z,3.40
2019-02-21T01:00:48.466Z,3.50
2019-02-21T01:03:16.931Z,3.50
2019-02-21T01:05:45.489Z,3.50
2019-02-21T01:08:13.986Z,3.60
2019-02-21T01:10:42.429Z,3.60
2019-02-21T01:13:11.235Z,3.60
2019-02-21T01:15:39.733Z,3.60
2019-02-21T01:18:08.201Z,3.50
2019-02-21T01:20:36.984Z,3.50
2019-02-21T01:23:05.412Z,3.40
2019-02-21T01:25:33.857Z,3.30
2019-02-21T01:28:21.653Z,3.30
2019-02-21T01:30:57.107Z,3.20
2019-02-21T01:33:20.590Z,3.20
2019-02-21T01:35:49.588Z,3.20
2019-02-21T01:38:18.266Z,3.20
2019-02-21T01:40:46.785Z,3.20
2019-02-21T01:43:15.237Z,3.20
2019-02-21T01:45:43.741Z,3.20
2019-02-21T01:48:12.181Z,3.20
2019-02-21T01:50:40.881Z,3.20
2019-02-21T01:53:09.324Z,3.20
2019-02-21T01:55:37.765Z,3.20
2019-02-21T01:58:06.205Z,3.10
2019-02-21T02:00:34.632Z,3.10
2019-02-21T02:03:03.397Z,3.00
2019-02-21T02:05:32.181Z,3.10
2019-02-21T02:08:00.613Z,3.00
2019-02-21T02:10:29.579Z,3.10
2019-02-21T02:12:59.462Z,3.10
2019-02-21T02:15:30.800Z,3.10
2019-02-21T02:18:06.896Z,3.10
2019-02-21T02:20:35.353Z,3.10
2019-02-21T02:23:03.785Z,3.10
2019-02-21T02:25:32.230Z,3.10
2019-02-21T02:28:00.673Z,3.10
2019-02-21T02:30:29.109Z,3.10
2019-02-21T02:32:57.621Z,3.10
2019-02-21T02:35:26.049Z,3.20
2019-02-21T02:37:54.959Z,3.20
2019-02-21T02:40:23.633Z,3.10
2019-02-21T02:42:52.084Z,3.10
2019-02-21T02:45:20.524Z,3.10
2019-02-21T02:47:49.035Z,3.00
2019-02-21T02:50:17.460Z,3.00
2019-02-21T02:52:45.908Z,3.00
2019-02-21T02:55:14.436Z,3.10
2019-02-21T02:57:42.877Z,3.10
2019-02-21T03:00:14.469Z,3.20
2019-02-21T03:02:43.241Z,3.20
2019-02-21T03:05:11.680Z,3.20
2019-02-21T03:07:40.506Z,3.10
2019-02-21T03:10:11.372Z,3.10
2019-02-21T03:12:39.814Z,3.10
2019-02-21T03:15:08.680Z,3.10
2019-02-21T03:17:37.126Z,3.20
2019-02-21T03:20:07.997Z,3.20
2019-02-21T03:22:36.720Z,3.30
2019-02-21T03:25:07.089Z,3.30
2019-02-21T03:27:35.532Z,3.30
2019-02-21T03:30:05.445Z,3.40
2019-02-21T03:32:33.955Z,3.30
2019-02-21T03:35:02.396Z,3.40
2019-02-21T03:37:30.833Z,3.40
2019-02-21T03:39:59.531Z,3.50
2019-02-21T03:42:27.966Z,3.50
2019-02-21T03:44:56.436Z,3.50
2019-02-21T03:47:24.896Z,3.50
2019-02-21T03:49:53.327Z,3.50
2019-02-21T03:52:21.848Z,3.60
2019-02-21T03:54:50.578Z,3.60
2019-02-21T03:57:19.077Z,3.60
2019-02-21T03:59:47.654Z,3.60
2019-02-21T04:02:16.157Z,3.70
2019-02-21T04:04:44.769Z,3.60
2019-02-21T04:07:13.203Z,3.60
2019-02-21T04:09:41.660Z,3.60
2019-02-21T04:12:10.088Z,3.50
2019-02-21T04:14:38.535Z,3.50
2019-02-21T04:17:06.961Z,3.50
2019-02-21T04:19:35.792Z,3.50
2019-02-21T04:22:04.226Z,3.50
2019-02-21T04:24:32.677Z,3.60
2019-02-21T04:27:01.147Z,3.60
2019-02-21T04:29:31.520Z,3.60
2019-02-21T04:31:59.941Z,3.60
2019-02-21T04:34:28.389Z,3.70
2019-02-21T04:36:56.816Z,3.70
2019-02-21T04:39:25.334Z,3.70
2019-02-21T04:41:53.913Z,3.70
2019-02-21T04:44:22.357Z,3.70
2019-02-21T04:46:50.789Z,3.70
2019-02-21T04:49:19.236Z,3.70
2019-02-21T04:51:47.669Z,3.70
2019-02-21T04:54:16.381Z,3.80
2019-02-21T04:56:44.812Z,3.80
2019-02-21T04:59:13.267Z,3.80
2019-02-21T05:01:41.689Z,3.80
2019-02-21T05:04:11.007Z,3.80
2019-02-21T05:06:39.500Z,3.80
2019-02-21T05:09:08.117Z,3.80
2019-02-21T05:11:36.879Z,3.80
2019-02-21T05:14:05.671Z,3.80
2019-02-21T05:16:34.170Z,3.80
2019-02-21T05:19:02.638Z,3.80
2019-02-21T05:21:31.472Z,3.80
2019-02-21T05:23:59.930Z,3.70
2019-02-21T05:26:30.071Z,3.70
2019-02-21T05:28:59.701Z,3.70
2019-02-21T05:31:29.775Z,3.70
2019-02-21T05:33:59.860Z,3.70
2019-02-21T05:36:35.675Z,3.70
2019-02-21T05:39:06.777Z,3.70
2019-02-21T05:41:42.854Z,3.80
2019-02-21T05:44:33.507Z,3.80
2019-02-21T05:47:19.580Z,3.80
2019-02-21T05:50:05.925Z,3.80
2019-02-21T05:52:41.835Z,3.80
2019-02-21T05:55:11.926Z,3.80
2019-02-21T05:57:51.144Z,3.90
2019-02-21T06:00:36.797Z,3.90
2019-02-21T06:03:09.478Z,3.90
2019-02-21T06:05:39.558Z,3.90
2019-02-21T06:08:09.637Z,3.90
2019-02-21T06:10:55.934Z,3.90
2019-02-21T06:13:28.806Z,3.90
2019-02-21T06:16:02.638Z,4.00
2019-02-21T06:18:33.053Z,3.90
2019-02-21T06:21:19.297Z,4.00
2019-02-21T06:23:55.329Z,4.00
2019-02-21T06:26:28.261Z,4.00
2019-02-21T06:29:01.044Z,4.00
2019-02-21T06:31:29.489Z,4.00
2019-02-21T06:33:57.932Z,4.00
2019-02-21T06:36:26.380Z,4.10
2019-02-21T06:38:57.753Z,4.10
2019-02-21T06:41:26.202Z,4.10
2019-02-21T06:43:56.742Z,4.00
2019-02-21T06:46:24.814Z,4.10
2019-02-21T06:48:53.317Z,4.10
2019-02-21T06:51:22.007Z,4.10
2019-02-21T06:53:53.017Z,4.10
2019-02-21T06:56:20.605Z,4.10
2019-02-21T06:58:49.025Z,4.20
2019-02-21T07:01:26.385Z,4.20
2019-02-21T07:03:47.640Z,4.20
2019-02-21T07:06:16.092Z,4.20
2019-02-21T07:08:44.577Z,4.20
2019-02-21T07:11:13.276Z,4.30
2019-02-21T07:13:41.706Z,4.30
2019-02-21T07:16:10.148Z,4.30
2019-02-21T07:18:40.669Z,4.40
2019-02-21T07:21:09.065Z,4.40
2019-02-21T07:23:43.514Z,4.50
2019-02-21T07:26:07.661Z,4.40
2019-02-21T07:28:36.100Z,4.50
2019-02-21T07:31:04.545Z,4.50
2019-02-21T07:33:32.993Z,4.60
2019-02-21T07:36:01.498Z,4.60
2019-02-21T07:38:29.961Z,4.60
2019-02-21T07:40:58.872Z,4.70
2019-02-21T07:43:27.481Z,4.70
2019-02-21T07:45:55.909Z,4.80
2019-02-21T07:48:24.374Z,4.80
2019-02-21T07:50:52.796Z,4.80
2019-02-21T07:53:21.245Z,4.90
2019-02-21T07:55:49.687Z,4.90
2019-02-21T07:58:18.199Z,5.00
2019-02-21T08:00:46.628Z,5.00
2019-02-21T08:03:15.077Z,5.10
2019-02-21T08:05:43.505Z,5.10
2019-02-21T08:08:11.954Z,5.10
2019-02-21T08:10:40.460Z,5.20
2019-02-21T08:13:08.906Z,5.20
2019-02-21T08:15:37.342Z,5.30
2019-02-21T08:18:05.782Z,5.40
2019-02-21T08:20:53.555Z,5.50
2019-02-21T08:23:22.006Z,5.60
2019-02-21T08:25:50.501Z,5.60
2019-02-21T08:28:18.946Z,5.70
2019-02-21T08:30:47.381Z,5.80
2019-02-21T08:33:17.465Z,5.90
2019-02-21T08:35:46.205Z,6.00
2019-02-21T08:38:14.994Z,6.00
2019-02-21T08:40:43.426Z,6.20
2019-02-21T08:43:11.869Z,6.20
2019-02-21T08:45:40.297Z,6.40
2019-02-21T08:48:08.729Z,6.50
2019-02-21T08:50:37.169Z,6.50
2019-02-21T08:53:05.636Z,6.60
2019-02-21T08:55:34.118Z,6.70
2019-02-21T08:58:02.549Z,6.70
2019-02-21T09:00:31.709Z,6.80
2019-02-21T09:03:00.577Z,6.90
2019-02-21T09:05:29.019Z,6.90
2019-02-21T09:07:57.803Z,6.90
2019-02-21T09:10:27.714Z,7.00
2019-02-21T09:12:56.466Z,7.10
2019-02-21T09:15:24.916Z,7.10
2019-02-21T09:17:54.342Z,7.20
2019-02-21T09:20:23.101Z,7.30
2019-02-21T09:22:51.529Z,7.40
2019-02-21T09:25:20.109Z,7.50
2019-02-21T09:27:48.560Z,7.60
2019-02-21T09:30:18.964Z,7.70
2019-02-21T09:32:47.703Z,7.70
2019-02-21T09:35:16.549Z,7.80
2019-02-21T09:37:45.049Z,7.80
2019-02-21T09:40:14.800Z,7.80
2019-02-21T09:42:43.510Z,7.80
2019-02-21T09:45:15.013Z,7.90
2019-02-21T09:47:43.635Z,7.90
2019-02-21T09:50:12.453Z,7.90
2019-02-21T09:52:40.881Z,7.90
2019-02-21T09:55:11.465Z,8.00
2019-02-21T09:57:39.979Z,8.00
2019-02-21T10:00:14.070Z,8.10
2019-02-21T10:02:42.642Z,8.10
2019-02-21T10:05:11.221Z,8.10
2019-02-21T10:07:39.653Z,8.20
2019-02-21T10:10:11.506Z,8.20
2019-02-21T10:12:39.932Z,8.20
2019-02-21T10:15:13.441Z,8.30
2019-02-21T10:17:41.875Z,8.30
2019-02-21T10:20:22.633Z,8.30
2019-02-21T10:22:51.077Z,8.40
2019-02-21T10:25:24.541Z,8.50
2019-02-21T10:27:52.968Z,8.50
2019-02-21T10:30:23.054Z,8.60
2019-02-21T10:32:51.625Z,8.60
2019-02-21T10:35:20.129Z,8.60
2019-02-21T10:37:48.565Z,8.70
2019-02-21T10:40:17.186Z,8.70
2019-02-21T10:42:45.686Z,8.80
2019-02-21T10:45:22.336Z,8.90
2019-02-21T10:47:50.775Z,9.00
2019-02-21T10:50:21.056Z,9.00
2019-02-21T10:52:49.577Z,9.00
2019-02-21T10:55:19.057Z,9.00
2019-02-21T10:57:47.561Z,9.00
2019-02-21T11:00:26.136Z,9.20
2019-02-21T11:02:54.637Z,9.40
2019-02-21T11:05:23.080Z,9.60
2019-02-21T11:07:51.509Z,9.70
2019-02-21T11:10:23.248Z,9.80
2019-02-21T11:12:51.774Z,9.90
2019-02-21T11:15:22.550Z,10.00
2019-02-21T11:17:50.994Z,10.10
2019-02-21T11:20:20.441Z,10.20
2019-02-21T11:22:48.892Z,10.40
2019-02-21T11:25:17.393Z,10.50
2019-02-21T11:27:46.193Z,10.90
2019-02-21T11:30:19.827Z,11.00
2019-02-21T11:32:48.424Z,11.10
2019-02-21T11:35:17.157Z,11.10
2019-02-21T11:37:47.088Z,11.10
2019-02-21T11:40:17.005Z,11.10
2019-02-21T11:42:45.698Z,11.10
2019-02-21T11:45:18.490Z,11.00
2019-02-21T11:47:47.149Z,11.00
2019-02-21T11:50:17.688Z,10.90
2019-02-21T11:52:46.139Z,11.00
2019-02-21T11:55:25.397Z,11.10
2019-02-21T11:57:53.988Z,11.10
2019-02-21T12:00:30.250Z,11.10
2019-02-21T12:02:58.698Z,11.20
2019-02-21T12:05:31.343Z,11.20
2019-02-21T12:07:57.304Z,11.30
2019-02-21T12:10:25.741Z,11.50
2019-02-21T12:12:54.192Z,11.60
2019-02-21T12:15:22.698Z,11.60
2019-02-21T12:17:51.154Z,11.60
2019-02-21T12:20:20.431Z,11.60
2019-02-21T12:22:48.948Z,11.50
2019-02-21T12:25:21.953Z,11.40
2019-02-21T12:27:50.407Z,11.30
2019-02-21T12:30:19.680Z,11.20
2019-02-21T12:32:48.143Z,11.40
2019-02-21T12:35:16.585Z,11.50
2019-02-21T12:37:45.056Z,11.70
2019-02-21T12:40:23.805Z,11.80
2019-02-21T12:42:52.263Z,11.80
2019-02-21T12:45:25.401Z,11.80
2019-02-21T12:47:54.314Z,11.80
2019-02-21T12:50:23.251Z,11.90
2019-02-21T12:52:51.757Z,12.00
2019-02-21T12:55:28.118Z,12.00
2019-02-21T12:57:50.368Z,12.10
2019-02-21T13:00:22.364Z,12.10
2019-02-21T13:02:51.744Z,12.10
2019-02-21T13:05:41.287Z,12.10
2019-02-21T13:08:08.349Z,12.20
2019-02-21T13:10:36.787Z,12.40
2019-02-21T13:13:05.578Z,12.50
2019-02-21T13:15:34.010Z,12.50
2019-02-21T13:18:02.459Z,12.20
2019-02-21T13:20:30.966Z,12.30
2019-02-21T13:22:59.419Z,12.20
2019-02-21T13:25:27.850Z,12.10
2019-02-21T13:27:56.574Z,12.20
2019-02-21T13:30:25.009Z,12.20
2019-02-21T13:32:53.525Z,12.20
2019-02-21T13:35:22.031Z,12.10
2019-02-21T13:37:50.478Z,12.10
2019-02-21T13:40:21.166Z,12.20
2019-02-21T13:42:49.088Z,12.20
2019-02-21T13:45:18.398Z,12.10
2019-02-21T13:47:46.839Z,12.10
2019-02-21T13:50:19.821Z,12.00
2019-02-21T13:52:48.361Z,12.00
2019-02-21T13:55:16.793Z,11.90
2019-02-21T13:57:45.659Z,11.90
2019-02-21T14:00:16.593Z,11.80
2019-02-21T14:02:45.039Z,11.80
2019-02-21T14:05:14.841Z,11.70
2019-02-21T14:07:43.276Z,11.70
2019-02-21T14:10:28.370Z,11.70
2019-02-21T14:13:01.829Z,11.70
2019-02-21T14:15:45.876Z,11.70
2019-02-21T14:18:21.408Z,11.60
2019-02-21T14:20:49.448Z,11.60
2019-02-21T14:23:17.880Z,11.60
2019-02-21T14:25:46.334Z,11.50
2019-02-21T14:28:14.768Z,11.50
2019-02-21T14:30:43.233Z,11.50
2019-02-21T14:33:11.697Z,11.50
2019-02-21T14:35:40.132Z,11.50
2019-02-21T14:38:08.576Z,11.50
2019-02-21T14:40:37.029Z,11.50
2019-02-21T14:43:05.462Z,11.50
2019-02-21T14:45:33.914Z,11.50
2019-02-21T14:48:02.676Z,11.50
2019-02-21T14:50:31.118Z,11.50
2019-02-21T14:52:59.796Z,11.50
2019-02-21T14:55:30.092Z,11.50
2019-02-21T14:57:58.407Z,11.50
2019-02-21T15:00:28.541Z,11.50
2019-02-21T15:02:57.809Z,11.50
2019-02-21T15:05:26.646Z,11.50
2019-02-21T15:07:55.081Z,11.40
2019-02-21T15:10:23.794Z,11.40
2019-02-21T15:12:52.233Z,11.30
2019-02-21T15:15:25.474Z,11.20
2019-02-21T15:17:53.905Z,11.20
2019-02-21T15:20:22.421Z,11.10
2019-02-21T15:22:50.864Z,11.00
2019-02-21T15:25:19.685Z,11.00
2019-02-21T15:27:48.121Z,10.90
2019-02-21T15:30:22.433Z,10.80
2019-02-21T15:32:50.869Z,10.80
2019-02-21T15:35:19.775Z,10.70
2019-02-21T15:37:48.794Z,10.70
2019-02-21T15:40:17.325Z,10.60
2019-02-21T15:42:46.061Z,10.60
2019-02-21T15:45:23.071Z,10.50
2019-02-21T15:47:47.571Z,10.50
2019-02-21T15:50:16.190Z,10.40
2019-02-21T15:52:45.867Z,10.40
2019-02-21T15:55:16.357Z,10.40
2019-02-21T15:57:44.821Z,10.30
2019-02-21T16:00:18.235Z,10.30
2019-02-21T16:02:46.672Z,10.20
2019-02-21T16:05:15.283Z,10.20
2019-02-21T16:07:43.712Z,10.10
2019-02-21T16:10:21.194Z,10.10
2019-02-21T16:12:50.290Z,10.00
2019-02-21T16:15:20.849Z,10.00
2019-02-21T16:17:49.561Z,10.00
2019-02-21T16:20:19.287Z,10.00
2019-02-21T16:22:48.096Z,9.90
2019-02-21T16:25:19.660Z,9.90
2019-02-21T16:27:48.093Z,9.90
2019-02-21T16:30:16.800Z,9.90
2019-02-21T16:32:45.596Z,9.80
2019-02-21T16:35:14.902Z,9.80
2019-02-21T16:37:43.333Z,9.70
2019-02-21T16:40:16.377Z,9.70
2019-02-21T16:42:44.825Z,9.70
2019-02-21T16:45:15.195Z,9.70
2019-02-21T16:47:44.060Z,9.60
2019-02-21T16:50:14.029Z,9.60
2019-02-21T16:52:42.910Z,9.50
2019-02-21T16:55:19.049Z,9.50
2019-02-21T16:57:47.488Z,9.40
2019-02-21T17:00:21.196Z,9.40
2019-02-21T17:02:49.915Z,9.30
2019-02-21T17:05:18.696Z,9.30
2019-02-21T17:07:47.159Z,9.20
2019-02-21T17:10:16.629Z,9.20
2019-02-21T17:12:45.138Z,9.10
2019-02-21T17:15:17.266Z,9.10
2019-02-21T17:17:45.760Z,9.00
2019-02-21T17:20:22.483Z,9.00
2019-02-21T17:22:50.921Z,9.00
2019-02-21T17:25:19.365Z,9.00
2019-02-21T17:27:50.243Z,9.00
2019-02-21T17:30:19.848Z,9.00
2019-02-21T17:32:48.781Z,9.00
2019-02-21T17:35:23.661Z,8.90
2019-02-21T17:37:56.859Z,8.90
2019-02-21T17:40:39.877Z,8.80
2019-02-21T17:43:10.698Z,8.80
2019-02-21T17:45:39.132Z,8.80
2019-02-21T17:48:07.585Z,8.70
2019-02-21T17:50:36.017Z,8.70
2019-02-21T17:53:04.610Z,8.70
2019-02-21T17:55:33.110Z,8.70
2019-02-21T17:58:01.558Z,8.70
2019-02-21T18:00:34.171Z,8.70
2019-02-21T18:03:22.493Z,8.70
2019-02-21T18:05:50.920Z,8.70
2019-02-21T18:08:19.369Z,8.60
2019-02-21T18:10:47.801Z,8.60
2019-02-21T18:13:16.249Z,8.60
2019-02-21T18:15:44.672Z,8.50
2019-02-21T18:18:13.383Z,8.40
2019-02-21T18:20:41.813Z,8.40
2019-02-21T18:23:12.417Z,8.30
2019-02-21T18:25:49.741Z,8.30
2019-02-21T18:28:18.182Z,8.40
2019-02-21T18:30:46.958Z,8.40
2019-02-21T18:33:15.653Z,8.30
2019-02-21T18:35:44.156Z,8.20
2019-02-21T18:38:12.606Z,8.20
2019-02-21T18:40:41.109Z,8.20
2019-02-21T18:43:09.544Z,8.20
2019-02-21T18:45:37.973Z,8.20
2019-02-21T18:48:06.673Z,8.20
2019-02-21T18:50:38.325Z,8.20
2019-02-21T18:53:05.290Z,8.10
2019-02-21T18:55:33.716Z,8.00
2019-02-21T18:58:02.148Z,8.00
2019-02-21T19:00:30.589Z,8.00
2019-02-21T19:02:59.025Z,8.00
2019-02-21T19:05:35.479Z,7.90
2019-02-21T19:08:04.156Z,7.80
2019-02-21T19:10:27.797Z,7.80
2019-02-21T19:12:56.558Z,7.80
2019-02-21T19:15:26.673Z,7.80
2019-02-21T19:17:55.452Z,7.70
2019-02-21T19:20:23.901Z,7.80
2019-02-21T19:22:52.406Z,7.90
2019-02-21T19:25:20.945Z,7.80
2019-02-21T19:27:49.805Z,7.90
2019-02-21T19:30:32.965Z,7.80
2019-02-21T19:33:01.397Z,7.80
2019-02-21T19:35:29.905Z,7.80
2019-02-21T19:38:09.496Z,7.80
2019-02-21T19:40:28.918Z,7.80
2019-02-21T19:42:57.355Z,7.80
2019-02-21T19:45:25.870Z,7.80
2019-02-21T19:47:54.302Z,7.80
2019-02-21T19:50:22.753Z,7.80
2019-02-21T19:52:51.249Z,7.70
2019-02-21T19:55:19.698Z,7.70
2019-02-21T19:57:48.201Z,7.70
2019-02-21T20:00:26.454Z,7.60
2019-02-21T20:02:55.253Z,7.60
2019-02-21T20:05:23.761Z,7.60
2019-02-21T20:07:52.193Z,7.60
2019-02-21T20:10:21.137Z,7.50
2019-02-21T20:12:49.574Z,7.50
2019-02-21T20:15:18.295Z,7.50
2019-02-21T20:17:46.727Z,7.50
2019-02-21T20:20:26.574Z,7.50
2019-02-21T20:22:55.160Z,7.60
2019-02-21T20:25:24.289Z,7.60
2019-02-21T20:27:52.723Z,7.60
2019-02-21T20:30:21.470Z,7.50
2019-02-21T20:32:49.908Z,7.50
2019-02-21T20:35:18.433Z,7.50
2019-02-21T20:37:46.968Z,7.50
2019-02-21T20:40:15.665Z,7.40
2019-02-21T20:42:44.114Z,7.40
2019-02-21T20:45:13.607Z,7.40
2019-02-21T20:47:42.110Z,7.40
2019-02-21T20:50:12.039Z,7.40
2019-02-21T20:52:40.661Z,7.40
2019-02-21T20:55:10.945Z,7.40
2019-02-21T20:57:39.528Z,7.40
2019-02-21T21:00:11.045Z,7.40
2019-02-21T21:02:39.478Z,7.40
2019-02-21T21:05:08.264Z,7.40
2019-02-21T21:07:36.762Z,7.40
2019-02-21T21:10:09.304Z,7.40
2019-02-21T21:12:37.961Z,7.30
2019-02-21T21:15:09.537Z,7.30
2019-02-21T21:17:38.293Z,7.40
2019-02-21T21:20:16.636Z,7.30
2019-02-21T21:22:42.197Z,7.40
2019-02-21T21:25:15.518Z,7.30
2019-02-21T21:27:44.347Z,7.30
2019-02-21T21:30:17.161Z,7.30
2019-02-21T21:32:45.992Z,7.30
2019-02-21T21:35:14.509Z,7.30
2019-02-21T21:37:43.120Z,7.30
2019-02-21T21:40:16.619Z,7.30
2019-02-21T21:42:45.369Z,7.30
2019-02-21T21:45:17.708Z,7.30
2019-02-21T21:47:46.140Z,7.30
2019-02-21T21:50:17.139Z,7.30
2019-02-21T21:52:45.912Z,7.30
2019-02-21T21:55:15.238Z,7.30
2019-02-21T21:57:44.032Z,7.30
2019-02-21T22:00:23.468Z,7.30
2019-02-21T22:02:52.037Z,7.30
2019-02-21T22:05:20.598Z,7.20
2019-02-21T22:07:49.593Z,7.20
2019-02-21T22:10:18.315Z,7.20
2019-02-21T22:12:47.032Z,7.10
2019-02-21T22:15:21.194Z,7.10
2019-02-21T22:17:49.642Z,7.10
2019-02-21T22:20:18.215Z,7.20
2019-02-21T22:22:46.712Z,7.20
2019-02-21T22:25:15.216Z,7.20
2019-02-21T22:27:43.735Z,7.20
2019-02-21T22:30:14.870Z,7.10
2019-02-21T22:32:43.319Z,7.20
2019-02-21T22:35:11.826Z,7.20
2019-02-21T22:37:40.349Z,7.20
2019-02-21T22:40:11.263Z,7.20
2019-02-21T22:42:39.818Z,7.20
2019-02-21T22:45:09.777Z,7.20
2019-02-21T22:47:38.268Z,7.10
2019-02-21T22:50:15.128Z,7.10
2019-02-21T22:52:43.655Z,7.10
2019-02-21T22:55:12.286Z,7.10
2019-02-21T22:57:40.729Z,7.10
2019-02-21T23:00:31.707Z,7.10
2019-02-21T23:03:01.407Z,7.00
2019-02-21T23:05:52.498Z,7.00
2019-02-21T23:08:42.343Z,7.00
2019-02-21T23:11:10.957Z,7.00
2019-02-21T23:13:39.385Z,7.00
2019-02-21T23:16:07.956Z,7.00
2019-02-21T23:18:36.726Z,7.00
2019-02-21T23:21:05.326Z,7.00
2019-02-21T23:23:34.072Z,7.00
2019-02-21T23:26:02.505Z,7.00
2019-02-21T23:28:31.033Z,7.00
2019-02-21T23:30:59.531Z,7.00
2019-02-21T23:33:28.965Z,7.00
2019-02-21T23:35:58.533Z,7.00
2019-02-21T23:38:26.973Z,6.90
2019-02-21T23:40:55.560Z,7.00
2019-02-21T23:43:24.029Z,7.00
2019-02-21T23:45:52.612Z,7.00
2019-02-21T23:48:21.143Z,7.00
2019-02-21T23:50:49.607Z,7.00
2019-02-21T23:53:18.181Z,6.90
2019-02-21T23:55:46.669Z,6.90
2019-02-21T23:58:15.178Z,6.90
